sensor_id;sensor_type;location;lat;lon;timestamp;P1;durP1;ratioP1;P2;durP2;ratioP2
59028;SDS011;45919;51.420;5.454;2022-10-26T00:00:29;14.48;;;8.07;;
59028;SDS011;45919;51.420;5.454;2022-10-26T00:01:30;14.73;;;8.30;;
59028;SDS011;45919;51.420;5.454;2022-10-26T00:02:32;12.35;;;7.43;;
59028;SDS011;45919;51.420;5.454;2022-10-26T00:03:34;15.80;;;8.35;;
59028;SDS011;45919;51.420;5.454;2022-10-26T00:04:36;14.88;;;8.52;;
59028;SDS011;45919;51.420;5.454;2022-10-26T00:05:38;12.18;;;8.18;;
59028;SDS011;45919;51.420;5.454;2022-10-26T00:06:40;12.73;;;7.97;;
59028;SDS011;45919;51.420;5.454;2022-10-26T00:07:41;13.90;;;7.82;;
59028;SDS011;45919;51.420;5.454;2022-10-26T00:08:43;18.20;;;9.02;;
59028;SDS011;45919;51.420;5.454;2022-10-26T00:09:45;15.68;;;8.40;;
59028;SDS011;45919;51.420;5.454;2022-10-26T00:10:46;12.43;;;8.18;;
59028;SDS011;45919;51.420;5.454;2022-10-26T00:11:48;13.38;;;8.20;;
59028;SDS011;45919;51.420;5.454;2022-10-26T00:12:49;13.25;;;8.57;;
59028;SDS011;45919;51.420;5.454;2022-10-26T00:13:52;16.00;;;8.50;;
59028;SDS011;45919;51.420;5.454;2022-10-26T00:14:53;13.07;;;8.55;;
59028;SDS011;45919;51.420;5.454;2022-10-26T00:15:55;13.90;;;8.70;;
59028;SDS011;45919;51.420;5.454;2022-10-26T00:16:56;13.63;;;8.82;;
59028;SDS011;45919;51.420;5.454;2022-10-26T00:17:58;14.15;;;8.48;;
59028;SDS011;45919;51.420;5.454;2022-10-26T00:19:00;13.35;;;8.57;;
59028;SDS011;45919;51.420;5.454;2022-10-26T00:20:01;13.88;;;8.13;;
59028;SDS011;45919;51.420;5.454;2022-10-26T00:21:03;12.43;;;8.38;;
59028;SDS011;45919;51.420;5.454;2022-10-26T00:22:06;11.50;;;8.32;;
59028;SDS011;45919;51.420;5.454;2022-10-26T00:23:07;14.63;;;8.13;;
59028;SDS011;45919;51.420;5.454;2022-10-26T00:24:10;13.60;;;8.80;;
59028;SDS011;45919;51.420;5.454;2022-10-26T00:25:12;15.23;;;8.35;;
59028;SDS011;45919;51.420;5.454;2022-10-26T00:26:13;16.15;;;8.32;;
59028;SDS011;45919;51.420;5.454;2022-10-26T00:27:15;12.60;;;8.05;;
59028;SDS011;45919;51.420;5.454;2022-10-26T00:28:16;14.15;;;8.73;;
59028;SDS011;45919;51.420;5.454;2022-10-26T00:29:18;16.15;;;8.80;;
59028;SDS011;45919;51.420;5.454;2022-10-26T00:30:20;14.48;;;8.68;;
59028;SDS011;45919;51.420;5.454;2022-10-26T00:31:22;13.77;;;8.98;;
59028;SDS011;45919;51.420;5.454;2022-10-26T00:32:23;11.60;;;8.50;;
59028;SDS011;45919;51.420;5.454;2022-10-26T00:33:25;12.70;;;7.82;;
59028;SDS011;45919;51.420;5.454;2022-10-26T00:34:27;14.50;;;8.50;;
59028;SDS011;45919;51.420;5.454;2022-10-26T00:35:29;14.00;;;8.57;;
59028;SDS011;45919;51.420;5.454;2022-10-26T00:36:41;12.40;;;8.15;;
59028;SDS011;45919;51.420;5.454;2022-10-26T00:37:43;14.02;;;8.63;;
59028;SDS011;45919;51.420;5.454;2022-10-26T00:38:48;13.13;;;8.40;;
59028;SDS011;45919;51.420;5.454;2022-10-26T00:39:58;11.68;;;8.07;;
59028;SDS011;45919;51.420;5.454;2022-10-26T00:40:59;13.93;;;8.13;;
59028;SDS011;45919;51.420;5.454;2022-10-26T00:42:01;12.35;;;8.00;;
59028;SDS011;45919;51.420;5.454;2022-10-26T00:43:04;16.15;;;8.02;;
59028;SDS011;45919;51.420;5.454;2022-10-26T00:45:49;10.77;;;7.65;;
59028;SDS011;45919;51.420;5.454;2022-10-26T00:46:53;15.23;;;7.93;;
59028;SDS011;45919;51.420;5.454;2022-10-26T00:48:05;13.80;;;8.32;;
59028;SDS011;45919;51.420;5.454;2022-10-26T00:49:13;11.35;;;7.75;;
59028;SDS011;45919;51.420;5.454;2022-10-26T00:50:22;11.15;;;7.53;;
59028;SDS011;45919;51.420;5.454;2022-10-26T00:51:32;13.90;;;8.35;;
59028;SDS011;45919;51.420;5.454;2022-10-26T00:52:39;11.68;;;7.80;;
59028;SDS011;45919;51.420;5.454;2022-10-26T00:53:41;13.02;;;8.05;;
59028;SDS011;45919;51.420;5.454;2022-10-26T00:54:43;12.10;;;8.50;;
59028;SDS011;45919;51.420;5.454;2022-10-26T00:55:47;14.00;;;8.20;;
59028;SDS011;45919;51.420;5.454;2022-10-26T00:56:51;16.48;;;8.55;;
59028;SDS011;45919;51.420;5.454;2022-10-26T00:57:55;18.70;;;9.13;;
59028;SDS011;45919;51.420;5.454;2022-10-26T00:58:58;11.85;;;8.32;;
59028;SDS011;45919;51.420;5.454;2022-10-26T01:00:04;12.32;;;8.20;;
59028;SDS011;45919;51.420;5.454;2022-10-26T01:01:07;14.60;;;8.05;;
59028;SDS011;45919;51.420;5.454;2022-10-26T01:02:09;12.70;;;8.20;;
59028;SDS011;45919;51.420;5.454;2022-10-26T01:03:11;13.30;;;8.40;;
59028;SDS011;45919;51.420;5.454;2022-10-26T01:04:13;13.70;;;8.40;;
59028;SDS011;45919;51.420;5.454;2022-10-26T01:05:16;10.85;;;7.70;;
59028;SDS011;45919;51.420;5.454;2022-10-26T01:06:18;14.88;;;8.23;;
59028;SDS011;45919;51.420;5.454;2022-10-26T01:07:21;16.77;;;8.13;;
59028;SDS011;45919;51.420;5.454;2022-10-26T01:08:24;13.65;;;9.15;;
59028;SDS011;45919;51.420;5.454;2022-10-26T01:09:28;12.63;;;8.13;;
59028;SDS011;45919;51.420;5.454;2022-10-26T01:10:31;13.15;;;8.57;;
59028;SDS011;45919;51.420;5.454;2022-10-26T01:11:35;13.45;;;8.23;;
59028;SDS011;45919;51.420;5.454;2022-10-26T01:12:37;13.02;;;8.15;;
59028;SDS011;45919;51.420;5.454;2022-10-26T01:13:39;13.65;;;8.48;;
59028;SDS011;45919;51.420;5.454;2022-10-26T01:14:43;15.43;;;9.27;;
59028;SDS011;45919;51.420;5.454;2022-10-26T01:17:06;13.93;;;8.60;;
59028;SDS011;45919;51.420;5.454;2022-10-26T01:22:17;13.32;;;8.48;;
59028;SDS011;45919;51.420;5.454;2022-10-26T01:24:44;12.35;;;8.23;;
59028;SDS011;45919;51.420;5.454;2022-10-26T01:27:33;14.50;;;7.68;;
59028;SDS011;45919;51.420;5.454;2022-10-26T01:31:31;14.73;;;8.48;;
59028;SDS011;45919;51.420;5.454;2022-10-26T01:34:19;15.40;;;8.88;;
59028;SDS011;45919;51.420;5.454;2022-10-26T01:36:35;16.80;;;9.07;;
59028;SDS011;45919;51.420;5.454;2022-10-26T01:37:51;16.83;;;9.10;;
59028;SDS011;45919;51.420;5.454;2022-10-26T01:40:10;15.52;;;8.63;;
59028;SDS011;45919;51.420;5.454;2022-10-26T01:41:27;18.63;;;9.90;;
59028;SDS011;45919;51.420;5.454;2022-10-26T01:42:33;14.50;;;9.35;;
59028;SDS011;45919;51.420;5.454;2022-10-26T01:43:39;13.52;;;9.20;;
59028;SDS011;45919;51.420;5.454;2022-10-26T01:44:45;16.35;;;9.55;;
59028;SDS011;45919;51.420;5.454;2022-10-26T01:45:52;15.32;;;9.35;;
59028;SDS011;45919;51.420;5.454;2022-10-26T01:46:57;15.70;;;9.90;;
59028;SDS011;45919;51.420;5.454;2022-10-26T01:47:59;14.98;;;9.30;;
59028;SDS011;45919;51.420;5.454;2022-10-26T01:49:05;14.68;;;9.15;;
59028;SDS011;45919;51.420;5.454;2022-10-26T01:50:09;13.32;;;8.98;;
59028;SDS011;45919;51.420;5.454;2022-10-26T01:51:12;15.00;;;9.75;;
59028;SDS011;45919;51.420;5.454;2022-10-26T01:52:16;17.25;;;10.07;;
59028;SDS011;45919;51.420;5.454;2022-10-26T01:53:19;12.73;;;9.15;;
59028;SDS011;45919;51.420;5.454;2022-10-26T01:54:21;15.68;;;10.35;;
59028;SDS011;45919;51.420;5.454;2022-10-26T01:56:33;15.27;;;9.50;;
59028;SDS011;45919;51.420;5.454;2022-10-26T01:57:39;14.30;;;9.32;;
59028;SDS011;45919;51.420;5.454;2022-10-26T02:04:21;13.90;;;9.52;;
59028;SDS011;45919;51.420;5.454;2022-10-26T02:06:44;13.90;;;9.63;;
59028;SDS011;45919;51.420;5.454;2022-10-26T02:11:55;15.07;;;9.38;;
59028;SDS011;45919;51.420;5.454;2022-10-26T02:14:55;15.93;;;9.50;;
59028;SDS011;45919;51.420;5.454;2022-10-26T02:17:27;13.60;;;8.93;;
59028;SDS011;45919;51.420;5.454;2022-10-26T02:19:53;14.18;;;9.48;;
59028;SDS011;45919;51.420;5.454;2022-10-26T02:20:59;14.55;;;8.57;;
59028;SDS011;45919;51.420;5.454;2022-10-26T02:23:20;16.20;;;9.75;;
59028;SDS011;45919;51.420;5.454;2022-10-26T02:24:25;14.73;;;9.57;;
59028;SDS011;45919;51.420;5.454;2022-10-26T02:25:29;14.48;;;9.50;;
59028;SDS011;45919;51.420;5.454;2022-10-26T02:26:33;14.68;;;9.45;;
59028;SDS011;45919;51.420;5.454;2022-10-26T02:27:38;15.90;;;8.88;;
59028;SDS011;45919;51.420;5.454;2022-10-26T02:28:44;13.60;;;8.95;;
59028;SDS011;45919;51.420;5.454;2022-10-26T02:29:50;14.15;;;8.70;;
59028;SDS011;45919;51.420;5.454;2022-10-26T02:30:55;16.27;;;8.70;;
59028;SDS011;45919;51.420;5.454;2022-10-26T02:31:59;12.50;;;8.18;;
59028;SDS011;45919;51.420;5.454;2022-10-26T02:33:02;13.05;;;8.90;;
59028;SDS011;45919;51.420;5.454;2022-10-26T02:34:06;16.13;;;9.43;;
59028;SDS011;45919;51.420;5.454;2022-10-26T02:35:12;14.57;;;8.55;;
59028;SDS011;45919;51.420;5.454;2022-10-26T02:36:18;14.95;;;7.95;;
59028;SDS011;45919;51.420;5.454;2022-10-26T02:37:25;12.82;;;8.15;;
59028;SDS011;45919;51.420;5.454;2022-10-26T02:38:29;14.60;;;7.60;;
59028;SDS011;45919;51.420;5.454;2022-10-26T02:39:32;14.55;;;7.95;;
59028;SDS011;45919;51.420;5.454;2022-10-26T02:40:36;11.98;;;7.72;;
59028;SDS011;45919;51.420;5.454;2022-10-26T02:41:39;13.70;;;8.05;;
59028;SDS011;45919;51.420;5.454;2022-10-26T02:42:43;13.25;;;7.80;;
59028;SDS011;45919;51.420;5.454;2022-10-26T02:44:34;11.40;;;7.45;;
59028;SDS011;45919;51.420;5.454;2022-10-26T02:45:13;13.95;;;7.00;;
59028;SDS011;45919;51.420;5.454;2022-10-26T02:46:20;11.05;;;7.18;;
59028;SDS011;45919;51.420;5.454;2022-10-26T02:47:26;10.00;;;7.22;;
59028;SDS011;45919;51.420;5.454;2022-10-26T02:48:28;12.43;;;7.07;;
59028;SDS011;45919;51.420;5.454;2022-10-26T02:49:30;12.60;;;7.43;;
59028;SDS011;45919;51.420;5.454;2022-10-26T02:50:32;12.40;;;7.07;;
59028;SDS011;45919;51.420;5.454;2022-10-26T02:55:22;11.02;;;6.38;;
59028;SDS011;45919;51.420;5.454;2022-10-26T02:58:08;9.32;;;5.85;;
59028;SDS011;45919;51.420;5.454;2022-10-26T02:59:15;11.40;;;5.97;;
59028;SDS011;45919;51.420;5.454;2022-10-26T03:00:21;13.27;;;6.50;;
59028;SDS011;45919;51.420;5.454;2022-10-26T03:01:23;15.10;;;6.35;;
59028;SDS011;45919;51.420;5.454;2022-10-26T03:02:25;11.05;;;6.43;;
59028;SDS011;45919;51.420;5.454;2022-10-26T03:03:27;12.05;;;6.18;;
59028;SDS011;45919;51.420;5.454;2022-10-26T03:04:29;12.48;;;6.65;;
59028;SDS011;45919;51.420;5.454;2022-10-26T03:05:32;11.50;;;6.20;;
59028;SDS011;45919;51.420;5.454;2022-10-26T03:06:36;10.43;;;6.15;;
59028;SDS011;45919;51.420;5.454;2022-10-26T03:07:37;10.30;;;6.25;;
59028;SDS011;45919;51.420;5.454;2022-10-26T03:08:39;10.90;;;5.93;;
59028;SDS011;45919;51.420;5.454;2022-10-26T03:09:40;10.95;;;6.20;;
59028;SDS011;45919;51.420;5.454;2022-10-26T03:10:43;13.45;;;6.47;;
59028;SDS011;45919;51.420;5.454;2022-10-26T03:11:45;11.10;;;6.20;;
59028;SDS011;45919;51.420;5.454;2022-10-26T03:12:47;10.82;;;6.28;;
59028;SDS011;45919;51.420;5.454;2022-10-26T03:13:49;12.18;;;6.65;;
59028;SDS011;45919;51.420;5.454;2022-10-26T03:14:50;11.30;;;6.50;;
59028;SDS011;45919;51.420;5.454;2022-10-26T03:15:55;9.65;;;5.57;;
59028;SDS011;45919;51.420;5.454;2022-10-26T03:16:57;9.60;;;5.65;;
59028;SDS011;45919;51.420;5.454;2022-10-26T03:17:59;8.27;;;5.55;;
59028;SDS011;45919;51.420;5.454;2022-10-26T03:19:01;10.45;;;5.78;;
59028;SDS011;45919;51.420;5.454;2022-10-26T03:20:02;10.82;;;5.72;;
59028;SDS011;45919;51.420;5.454;2022-10-26T03:21:04;10.23;;;5.85;;
59028;SDS011;45919;51.420;5.454;2022-10-26T03:22:06;9.80;;;5.22;;
59028;SDS011;45919;51.420;5.454;2022-10-26T03:23:07;13.38;;;6.07;;
59028;SDS011;45919;51.420;5.454;2022-10-26T03:24:09;11.20;;;5.45;;
59028;SDS011;45919;51.420;5.454;2022-10-26T03:25:11;10.60;;;5.75;;
59028;SDS011;45919;51.420;5.454;2022-10-26T03:26:12;9.00;;;5.80;;
59028;SDS011;45919;51.420;5.454;2022-10-26T03:27:14;8.77;;;5.50;;
59028;SDS011;45919;51.420;5.454;2022-10-26T03:28:15;8.80;;;5.60;;
59028;SDS011;45919;51.420;5.454;2022-10-26T03:29:17;11.60;;;5.60;;
59028;SDS011;45919;51.420;5.454;2022-10-26T03:30:19;9.52;;;5.40;;
59028;SDS011;45919;51.420;5.454;2022-10-26T03:31:20;8.25;;;5.53;;
59028;SDS011;45919;51.420;5.454;2022-10-26T03:32:22;10.07;;;5.35;;
59028;SDS011;45919;51.420;5.454;2022-10-26T03:33:23;10.52;;;5.88;;
59028;SDS011;45919;51.420;5.454;2022-10-26T03:34:25;11.27;;;5.53;;
59028;SDS011;45919;51.420;5.454;2022-10-26T03:35:27;10.82;;;5.82;;
59028;SDS011;45919;51.420;5.454;2022-10-26T03:36:28;11.05;;;5.60;;
59028;SDS011;45919;51.420;5.454;2022-10-26T03:37:30;13.65;;;5.70;;
59028;SDS011;45919;51.420;5.454;2022-10-26T03:38:32;11.95;;;5.25;;
59028;SDS011;45919;51.420;5.454;2022-10-26T03:39:33;8.02;;;5.20;;
59028;SDS011;45919;51.420;5.454;2022-10-26T03:40:35;9.13;;;5.45;;
59028;SDS011;45919;51.420;5.454;2022-10-26T03:41:36;10.75;;;5.60;;
59028;SDS011;45919;51.420;5.454;2022-10-26T03:42:38;8.73;;;5.03;;
59028;SDS011;45919;51.420;5.454;2022-10-26T03:43:40;9.02;;;5.40;;
59028;SDS011;45919;51.420;5.454;2022-10-26T03:44:41;9.77;;;5.32;;
59028;SDS011;45919;51.420;5.454;2022-10-26T03:45:44;9.85;;;5.13;;
59028;SDS011;45919;51.420;5.454;2022-10-26T03:46:45;8.27;;;5.22;;
59028;SDS011;45919;51.420;5.454;2022-10-26T03:47:47;8.88;;;5.38;;
59028;SDS011;45919;51.420;5.454;2022-10-26T03:48:49;9.43;;;5.20;;
59028;SDS011;45919;51.420;5.454;2022-10-26T03:49:51;10.05;;;6.18;;
59028;SDS011;45919;51.420;5.454;2022-10-26T03:50:56;8.65;;;5.40;;
59028;SDS011;45919;51.420;5.454;2022-10-26T03:51:58;7.78;;;5.07;;
59028;SDS011;45919;51.420;5.454;2022-10-26T03:52:59;9.75;;;5.50;;
59028;SDS011;45919;51.420;5.454;2022-10-26T03:54:01;8.32;;;5.25;;
59028;SDS011;45919;51.420;5.454;2022-10-26T03:55:02;7.55;;;5.07;;
59028;SDS011;45919;51.420;5.454;2022-10-26T03:56:04;8.63;;;5.20;;
59028;SDS011;45919;51.420;5.454;2022-10-26T03:57:06;9.70;;;5.47;;
59028;SDS011;45919;51.420;5.454;2022-10-26T03:58:08;12.48;;;5.60;;
59028;SDS011;45919;51.420;5.454;2022-10-26T03:59:09;11.35;;;5.50;;
59028;SDS011;45919;51.420;5.454;2022-10-26T04:00:11;8.50;;;5.07;;
59028;SDS011;45919;51.420;5.454;2022-10-26T04:01:18;9.43;;;4.97;;
59028;SDS011;45919;51.420;5.454;2022-10-26T04:02:19;10.20;;;5.90;;
59028;SDS011;45919;51.420;5.454;2022-10-26T04:03:21;9.18;;;5.45;;
59028;SDS011;45919;51.420;5.454;2022-10-26T04:04:22;11.95;;;5.07;;
59028;SDS011;45919;51.420;5.454;2022-10-26T04:05:24;9.65;;;4.72;;
59028;SDS011;45919;51.420;5.454;2022-10-26T04:06:27;9.07;;;5.15;;
59028;SDS011;45919;51.420;5.454;2022-10-26T04:07:29;9.90;;;5.00;;
59028;SDS011;45919;51.420;5.454;2022-10-26T04:08:30;7.95;;;4.55;;
59028;SDS011;45919;51.420;5.454;2022-10-26T04:09:32;7.82;;;4.78;;
59028;SDS011;45919;51.420;5.454;2022-10-26T04:10:33;8.65;;;4.88;;
59028;SDS011;45919;51.420;5.454;2022-10-26T04:11:35;9.23;;;5.28;;
59028;SDS011;45919;51.420;5.454;2022-10-26T04:12:37;9.63;;;5.10;;
59028;SDS011;45919;51.420;5.454;2022-10-26T04:13:39;13.07;;;5.22;;
59028;SDS011;45919;51.420;5.454;2022-10-26T04:14:40;7.85;;;5.35;;
59028;SDS011;45919;51.420;5.454;2022-10-26T04:15:42;9.35;;;5.20;;
59028;SDS011;45919;51.420;5.454;2022-10-26T04:16:44;7.72;;;4.80;;
59028;SDS011;45919;51.420;5.454;2022-10-26T04:17:45;7.25;;;5.07;;
59028;SDS011;45919;51.420;5.454;2022-10-26T04:18:47;10.07;;;5.10;;
59028;SDS011;45919;51.420;5.454;2022-10-26T04:19:49;9.68;;;4.90;;
59028;SDS011;45919;51.420;5.454;2022-10-26T04:20:51;8.95;;;4.93;;
59028;SDS011;45919;51.420;5.454;2022-10-26T04:21:53;9.15;;;5.30;;
59028;SDS011;45919;51.420;5.454;2022-10-26T04:22:58;12.65;;;4.97;;
59028;SDS011;45919;51.420;5.454;2022-10-26T04:24:04;9.75;;;5.35;;
59028;SDS011;45919;51.420;5.454;2022-10-26T04:25:06;9.20;;;4.75;;
59028;SDS011;45919;51.420;5.454;2022-10-26T04:26:08;10.63;;;5.00;;
59028;SDS011;45919;51.420;5.454;2022-10-26T04:27:09;8.77;;;4.75;;
59028;SDS011;45919;51.420;5.454;2022-10-26T04:28:11;8.60;;;4.97;;
59028;SDS011;45919;51.420;5.454;2022-10-26T04:29:14;9.88;;;4.95;;
59028;SDS011;45919;51.420;5.454;2022-10-26T04:30:15;8.35;;;4.78;;
59028;SDS011;45919;51.420;5.454;2022-10-26T04:31:17;8.32;;;4.72;;
59028;SDS011;45919;51.420;5.454;2022-10-26T04:32:18;9.95;;;4.80;;
59028;SDS011;45919;51.420;5.454;2022-10-26T04:33:20;8.82;;;5.07;;
59028;SDS011;45919;51.420;5.454;2022-10-26T04:34:21;8.70;;;4.93;;
59028;SDS011;45919;51.420;5.454;2022-10-26T04:35:23;8.55;;;4.78;;
59028;SDS011;45919;51.420;5.454;2022-10-26T04:36:25;14.18;;;4.68;;
59028;SDS011;45919;51.420;5.454;2022-10-26T04:37:26;8.35;;;5.10;;
59028;SDS011;45919;51.420;5.454;2022-10-26T04:38:28;8.93;;;4.85;;
59028;SDS011;45919;51.420;5.454;2022-10-26T04:39:29;8.13;;;5.13;;
59028;SDS011;45919;51.420;5.454;2022-10-26T04:40:32;7.78;;;4.68;;
59028;SDS011;45919;51.420;5.454;2022-10-26T04:41:34;11.20;;;4.75;;
59028;SDS011;45919;51.420;5.454;2022-10-26T04:42:42;8.07;;;4.68;;
59028;SDS011;45919;51.420;5.454;2022-10-26T04:43:45;9.05;;;4.68;;
59028;SDS011;45919;51.420;5.454;2022-10-26T04:44:47;9.55;;;4.65;;
59028;SDS011;45919;51.420;5.454;2022-10-26T04:45:48;10.07;;;4.47;;
59028;SDS011;45919;51.420;5.454;2022-10-26T04:46:50;8.35;;;4.63;;
59028;SDS011;45919;51.420;5.454;2022-10-26T04:48:05;8.98;;;5.00;;
59028;SDS011;45919;51.420;5.454;2022-10-26T04:49:08;9.38;;;4.50;;
59028;SDS011;45919;51.420;5.454;2022-10-26T04:50:10;9.07;;;5.10;;
59028;SDS011;45919;51.420;5.454;2022-10-26T04:51:13;7.32;;;4.65;;
59028;SDS011;45919;51.420;5.454;2022-10-26T04:52:15;11.32;;;5.10;;
59028;SDS011;45919;51.420;5.454;2022-10-26T04:53:16;9.57;;;4.70;;
59028;SDS011;45919;51.420;5.454;2022-10-26T04:54:18;8.05;;;4.50;;
59028;SDS011;45919;51.420;5.454;2022-10-26T04:55:19;5.72;;;4.25;;
59028;SDS011;45919;51.420;5.454;2022-10-26T04:56:21;12.10;;;4.80;;
59028;SDS011;45919;51.420;5.454;2022-10-26T04:57:22;7.57;;;5.10;;
59028;SDS011;45919;51.420;5.454;2022-10-26T04:58:24;8.73;;;4.55;;
59028;SDS011;45919;51.420;5.454;2022-10-26T04:59:27;8.40;;;4.57;;
59028;SDS011;45919;51.420;5.454;2022-10-26T05:00:29;8.63;;;4.65;;
59028;SDS011;45919;51.420;5.454;2022-10-26T05:01:32;8.27;;;4.40;;
59028;SDS011;45919;51.420;5.454;2022-10-26T05:02:34;12.98;;;4.93;;
59028;SDS011;45919;51.420;5.454;2022-10-26T05:03:36;7.57;;;4.45;;
59028;SDS011;45919;51.420;5.454;2022-10-26T05:04:37;11.32;;;4.70;;
59028;SDS011;45919;51.420;5.454;2022-10-26T05:05:39;8.15;;;4.45;;
59028;SDS011;45919;51.420;5.454;2022-10-26T05:06:40;8.75;;;4.60;;
59028;SDS011;45919;51.420;5.454;2022-10-26T05:07:42;9.05;;;4.68;;
59028;SDS011;45919;51.420;5.454;2022-10-26T05:08:43;7.50;;;4.35;;
59028;SDS011;45919;51.420;5.454;2022-10-26T05:09:45;8.45;;;4.60;;
59028;SDS011;45919;51.420;5.454;2022-10-26T05:10:49;9.57;;;4.78;;
59028;SDS011;45919;51.420;5.454;2022-10-26T05:11:51;8.20;;;4.57;;
59028;SDS011;45919;51.420;5.454;2022-10-26T05:12:53;11.65;;;4.57;;
59028;SDS011;45919;51.420;5.454;2022-10-26T05:13:56;13.48;;;4.70;;
59028;SDS011;45919;51.420;5.454;2022-10-26T05:14:57;8.65;;;4.30;;
59028;SDS011;45919;51.420;5.454;2022-10-26T05:15:59;8.70;;;4.95;;
59028;SDS011;45919;51.420;5.454;2022-10-26T05:17:00;11.25;;;4.60;;
59028;SDS011;45919;51.420;5.454;2022-10-26T05:18:02;6.40;;;4.22;;
59028;SDS011;45919;51.420;5.454;2022-10-26T05:19:05;7.78;;;4.18;;
59028;SDS011;45919;51.420;5.454;2022-10-26T05:20:07;10.35;;;5.03;;
59028;SDS011;45919;51.420;5.454;2022-10-26T05:21:13;8.30;;;4.30;;
59028;SDS011;45919;51.420;5.454;2022-10-26T05:22:20;7.88;;;4.35;;
59028;SDS011;45919;51.420;5.454;2022-10-26T05:23:22;6.60;;;4.15;;
59028;SDS011;45919;51.420;5.454;2022-10-26T05:24:24;10.55;;;4.85;;
59028;SDS011;45919;51.420;5.454;2022-10-26T05:25:26;12.20;;;4.50;;
59028;SDS011;45919;51.420;5.454;2022-10-26T05:26:28;8.55;;;4.32;;
59028;SDS011;45919;51.420;5.454;2022-10-26T05:27:30;7.10;;;4.40;;
59028;SDS011;45919;51.420;5.454;2022-10-26T05:28:32;7.65;;;4.05;;
59028;SDS011;45919;51.420;5.454;2022-10-26T05:29:33;10.07;;;4.70;;
59028;SDS011;45919;51.420;5.454;2022-10-26T05:30:35;6.82;;;4.43;;
59028;SDS011;45919;51.420;5.454;2022-10-26T05:31:36;9.73;;;4.10;;
59028;SDS011;45919;51.420;5.454;2022-10-26T05:32:38;9.90;;;4.28;;
59028;SDS011;45919;51.420;5.454;2022-10-26T05:33:39;9.50;;;4.20;;
59028;SDS011;45919;51.420;5.454;2022-10-26T05:34:41;8.18;;;4.38;;
59028;SDS011;45919;51.420;5.454;2022-10-26T05:35:42;8.27;;;3.97;;
59028;SDS011;45919;51.420;5.454;2022-10-26T05:36:44;8.70;;;4.30;;
59028;SDS011;45919;51.420;5.454;2022-10-26T05:37:46;7.05;;;4.35;;
59028;SDS011;45919;51.420;5.454;2022-10-26T05:38:47;8.00;;;4.53;;
59028;SDS011;45919;51.420;5.454;2022-10-26T05:39:49;8.10;;;4.20;;
59028;SDS011;45919;51.420;5.454;2022-10-26T05:40:51;9.02;;;4.55;;
59028;SDS011;45919;51.420;5.454;2022-10-26T05:41:54;10.82;;;4.43;;
59028;SDS011;45919;51.420;5.454;2022-10-26T05:42:59;9.93;;;4.72;;
59028;SDS011;45919;51.420;5.454;2022-10-26T05:44:02;10.15;;;4.35;;
59028;SDS011;45919;51.420;5.454;2022-10-26T05:45:03;8.48;;;4.20;;
59028;SDS011;45919;51.420;5.454;2022-10-26T05:46:05;9.68;;;4.40;;
59028;SDS011;45919;51.420;5.454;2022-10-26T05:47:07;7.90;;;4.65;;
59028;SDS011;45919;51.420;5.454;2022-10-26T05:48:08;9.35;;;4.90;;
59028;SDS011;45919;51.420;5.454;2022-10-26T05:49:10;10.40;;;4.38;;
59028;SDS011;45919;51.420;5.454;2022-10-26T05:50:12;9.48;;;4.60;;
59028;SDS011;45919;51.420;5.454;2022-10-26T05:51:14;9.57;;;4.43;;
59028;SDS011;45919;51.420;5.454;2022-10-26T05:52:16;7.03;;;4.05;;
59028;SDS011;45919;51.420;5.454;2022-10-26T05:53:18;7.72;;;4.07;;
59028;SDS011;45919;51.420;5.454;2022-10-26T05:54:20;9.60;;;4.60;;
59028;SDS011;45919;51.420;5.454;2022-10-26T05:55:21;11.00;;;5.03;;
59028;SDS011;45919;51.420;5.454;2022-10-26T05:56:31;7.93;;;3.97;;
59028;SDS011;45919;51.420;5.454;2022-10-26T05:57:35;8.73;;;4.20;;
59028;SDS011;45919;51.420;5.454;2022-10-26T05:58:37;6.60;;;4.68;;
59028;SDS011;45919;51.420;5.454;2022-10-26T05:59:39;8.18;;;4.30;;
59028;SDS011;45919;51.420;5.454;2022-10-26T06:01:03;7.90;;;4.72;;
59028;SDS011;45919;51.420;5.454;2022-10-26T06:02:17;9.63;;;4.35;;
59028;SDS011;45919;51.420;5.454;2022-10-26T06:04:56;6.07;;;4.35;;
59028;SDS011;45919;51.420;5.454;2022-10-26T06:06:04;9.70;;;4.40;;
59028;SDS011;45919;51.420;5.454;2022-10-26T06:07:11;14.55;;;4.72;;
59028;SDS011;45919;51.420;5.454;2022-10-26T06:08:14;9.43;;;4.43;;
59028;SDS011;45919;51.420;5.454;2022-10-26T06:09:16;9.45;;;4.60;;
59028;SDS011;45919;51.420;5.454;2022-10-26T06:10:18;10.60;;;4.75;;
59028;SDS011;45919;51.420;5.454;2022-10-26T06:11:20;10.95;;;4.80;;
59028;SDS011;45919;51.420;5.454;2022-10-26T06:12:22;9.05;;;4.72;;
59028;SDS011;45919;51.420;5.454;2022-10-26T06:13:26;7.55;;;4.28;;
59028;SDS011;45919;51.420;5.454;2022-10-26T06:18:24;8.65;;;4.07;;
59028;SDS011;45919;51.420;5.454;2022-10-26T06:20:02;10.63;;;5.10;;
59028;SDS011;45919;51.420;5.454;2022-10-26T06:29:45;8.80;;;4.53;;
59028;SDS011;45919;51.420;5.454;2022-10-26T06:30:50;10.88;;;4.72;;
59028;SDS011;45919;51.420;5.454;2022-10-26T06:31:52;13.27;;;5.30;;
59028;SDS011;45919;51.420;5.454;2022-10-26T06:32:53;6.43;;;4.40;;
59028;SDS011;45919;51.420;5.454;2022-10-26T06:33:57;9.35;;;4.43;;
59028;SDS011;45919;51.420;5.454;2022-10-26T06:36:23;10.43;;;4.93;;
59028;SDS011;45919;51.420;5.454;2022-10-26T06:37:30;9.73;;;4.60;;
59028;SDS011;45919;51.420;5.454;2022-10-26T06:38:33;8.52;;;4.90;;
59028;SDS011;45919;51.420;5.454;2022-10-26T06:39:38;10.23;;;4.80;;
59028;SDS011;45919;51.420;5.454;2022-10-26T06:40:44;8.30;;;4.47;;
59028;SDS011;45919;51.420;5.454;2022-10-26T06:41:49;9.25;;;4.97;;
59028;SDS011;45919;51.420;5.454;2022-10-26T06:42:51;10.52;;;4.93;;
59028;SDS011;45919;51.420;5.454;2022-10-26T06:43:53;8.25;;;4.78;;
59028;SDS011;45919;51.420;5.454;2022-10-26T06:44:55;11.50;;;4.63;;
59028;SDS011;45919;51.420;5.454;2022-10-26T06:47:09;8.45;;;4.53;;
59028;SDS011;45919;51.420;5.454;2022-10-26T06:48:18;10.93;;;4.88;;
59028;SDS011;45919;51.420;5.454;2022-10-26T06:50:50;10.93;;;4.75;;
59028;SDS011;45919;51.420;5.454;2022-10-26T06:55:02;10.40;;;4.85;;
59028;SDS011;45919;51.420;5.454;2022-10-26T06:56:05;10.13;;;5.10;;
59028;SDS011;45919;51.420;5.454;2022-10-26T06:57:08;10.93;;;5.22;;
59028;SDS011;45919;51.420;5.454;2022-10-26T06:58:16;10.60;;;5.22;;
59028;SDS011;45919;51.420;5.454;2022-10-26T06:59:32;11.40;;;5.03;;
59028;SDS011;45919;51.420;5.454;2022-10-26T07:00:38;10.30;;;4.55;;
59028;SDS011;45919;51.420;5.454;2022-10-26T07:01:40;8.25;;;4.75;;
59028;SDS011;45919;51.420;5.454;2022-10-26T07:02:42;11.82;;;4.97;;
59028;SDS011;45919;51.420;5.454;2022-10-26T07:03:43;9.38;;;4.90;;
59028;SDS011;45919;51.420;5.454;2022-10-26T07:04:45;9.80;;;5.07;;
59028;SDS011;45919;51.420;5.454;2022-10-26T07:05:47;9.93;;;4.88;;
59028;SDS011;45919;51.420;5.454;2022-10-26T07:06:49;10.35;;;4.90;;
59028;SDS011;45919;51.420;5.454;2022-10-26T07:07:51;12.93;;;5.70;;
59028;SDS011;45919;51.420;5.454;2022-10-26T07:08:52;9.02;;;4.68;;
59028;SDS011;45919;51.420;5.454;2022-10-26T07:09:54;9.88;;;5.05;;
59028;SDS011;45919;51.420;5.454;2022-10-26T07:10:56;9.80;;;4.97;;
59028;SDS011;45919;51.420;5.454;2022-10-26T07:11:57;7.32;;;4.82;;
59028;SDS011;45919;51.420;5.454;2022-10-26T07:12:59;8.90;;;4.97;;
59028;SDS011;45919;51.420;5.454;2022-10-26T07:14:01;9.15;;;4.80;;
59028;SDS011;45919;51.420;5.454;2022-10-26T07:15:03;7.97;;;3.95;;
59028;SDS011;45919;51.420;5.454;2022-10-26T07:16:05;8.18;;;4.90;;
59028;SDS011;45919;51.420;5.454;2022-10-26T07:17:07;7.93;;;4.95;;
59028;SDS011;45919;51.420;5.454;2022-10-26T07:18:09;9.95;;;5.10;;
59028;SDS011;45919;51.420;5.454;2022-10-26T07:19:11;8.35;;;4.57;;
59028;SDS011;45919;51.420;5.454;2022-10-26T07:20:13;7.53;;;4.97;;